RYR23P EGPF-EGBB
Flight info
| Callsign | RYR23P |
|---|---|
| Flight time | 0h 47m |
| Altitude | 27000 |
| Route | NORBO T256 RIPNO/N0441F270 DCT AKOMU DCT VAMEB UL612 CROFT |
| Aircraft | B738/M-SDE2E3FGHIRWXY/LB1 |
Departure
| Time | 2026-05-05 15:06 |
|---|---|
| Airport | Glasgow Airport (EGPF) |
Arrival
| Time | 2026-05-05 15:54 |
|---|---|
| Airport | Birmingham Airport (EGBB) |
| Time | Latitude | Longitude | Altitude | Speed | Heading |
|---|---|---|---|---|---|
| 2026-05-05 14:50 | 55.86672 | -4.43315 | 32 ft | 0 kts | 252° |
| 2026-05-05 14:56 | 55.86672 | -4.43309 | 32 ft | 4 kts | 231° |
| 2026-05-05 14:56 | 55.86674 | -4.43292 | 29 ft | 4 kts | 262° |
| 2026-05-05 14:56 | 55.86673 | -4.43248 | 29 ft | 4 kts | 301° |
| 2026-05-05 14:57 | 55.86654 | -4.43220 | 30 ft | 3 kts | 343° |
| 2026-05-05 14:57 | 55.86646 | -4.43216 | 32 ft | 0 kts | 344° |
| 2026-05-05 14:59 | 55.86656 | -4.43220 | 30 ft | 5 kts | 344° |
| 2026-05-05 14:59 | 55.86710 | -4.43249 | 32 ft | 9 kts | 343° |
| 2026-05-05 14:59 | 55.86771 | -4.43285 | 32 ft | 9 kts | 332° |
| 2026-05-05 15:00 | 55.86784 | -4.43389 | 32 ft | 9 kts | 256° |
| 2026-05-05 15:00 | 55.86773 | -4.43461 | 32 ft | 9 kts | 255° |
| 2026-05-05 15:00 | 55.86739 | -4.43667 | 32 ft | 17 kts | 253° |
| 2026-05-05 15:00 | 55.86680 | -4.43846 | 32 ft | 17 kts | 226° |
| 2026-05-05 15:01 | 55.86601 | -4.43994 | 32 ft | 16 kts | 226° |
| 2026-05-05 15:01 | 55.86525 | -4.44136 | 32 ft | 16 kts | 226° |
| 2026-05-05 15:01 | 55.86452 | -4.44272 | 32 ft | 15 kts | 226° |
| 2026-05-05 15:01 | 55.86383 | -4.44401 | 32 ft | 14 kts | 226° |
| 2026-05-05 15:02 | 55.86317 | -4.44526 | 32 ft | 13 kts | 226° |
| 2026-05-05 15:02 | 55.86290 | -4.44576 | 32 ft | 2 kts | 226° |
| 2026-05-05 15:02 | 55.86283 | -4.44590 | 32 ft | 2 kts | 226° |
| 2026-05-05 15:02 | 55.86282 | -4.44592 | 32 ft | 0 kts | 226° |
| 2026-05-05 15:04 | 55.86281 | -4.44593 | 32 ft | 2 kts | 226° |
| 2026-05-05 15:04 | 55.86254 | -4.44710 | 32 ft | 14 kts | 295° |
| 2026-05-05 15:04 | 55.86317 | -4.44833 | 32 ft | 13 kts | 316° |
| 2026-05-05 15:04 | 55.86372 | -4.44852 | 32 ft | 8 kts | 32° |
| 2026-05-05 15:05 | 55.86378 | -4.44843 | 33 ft | 0 kts | 42° |
| 2026-05-05 15:05 | 55.86378 | -4.44842 | 33 ft | 1 kts | 42° |
| 2026-05-05 15:05 | 55.86535 | -4.44554 | 37 ft | 67 kts | 47° |
| 2026-05-05 15:06 | 55.87012 | -4.43663 | 38 ft | 128 kts | 46° |
| 2026-05-05 15:06 | 55.87737 | -4.42310 | 239 ft | 163 kts | 46° |
| 2026-05-05 15:06 | 55.88553 | -4.40960 | 1130 ft | 161 kts | 45° |
| 2026-05-05 15:06 | 55.89432 | -4.39670 | 1918 ft | 166 kts | 39° |
| 2026-05-05 15:07 | 55.90429 | -4.38556 | 2681 ft | 175 kts | 39° |
| 2026-05-05 15:07 | 55.91419 | -4.37039 | 2965 ft | 199 kts | 55° |
| 2026-05-05 15:07 | 55.92269 | -4.35010 | 3424 ft | 208 kts | 51° |
| 2026-05-05 15:07 | 55.93241 | -4.33039 | 3954 ft | 219 kts | 45° |
| 2026-05-05 15:08 | 55.94539 | -4.31564 | 4470 ft | 229 kts | 15° |
| 2026-05-05 15:08 | 55.96101 | -4.31639 | 5240 ft | 226 kts | 340° |
| 2026-05-05 15:08 | 55.97421 | -4.33149 | 6138 ft | 225 kts | 313° |
| 2026-05-05 15:08 | 55.98220 | -4.35530 | 6983 ft | 226 kts | 289° |
| 2026-05-05 15:09 | 55.98418 | -4.38373 | 7555 ft | 243 kts | 266° |
| 2026-05-05 15:09 | 55.97891 | -4.41446 | 7793 ft | 272 kts | 250° |
| 2026-05-05 15:09 | 55.97066 | -4.44572 | 8402 ft | 284 kts | 246° |
| 2026-05-05 15:09 | 55.96204 | -4.47794 | 9139 ft | 290 kts | 248° |
| 2026-05-05 15:10 | 55.95279 | -4.50993 | 9986 ft | 296 kts | 237° |
| 2026-05-05 15:10 | 55.93873 | -4.53631 | 10797 ft | 299 kts | 226° |
| 2026-05-05 15:10 | 55.92354 | -4.56210 | 11532 ft | 303 kts | 227° |
| 2026-05-05 15:10 | 55.90840 | -4.58856 | 12309 ft | 306 kts | 228° |
| 2026-05-05 15:11 | 55.89332 | -4.61545 | 13112 ft | 308 kts | 229° |
| 2026-05-05 15:11 | 55.87818 | -4.64266 | 13881 ft | 311 kts | 229° |
| 2026-05-05 15:11 | 55.86283 | -4.67006 | 14552 ft | 315 kts | 226° |
| 2026-05-05 15:11 | 55.84484 | -4.69315 | 15198 ft | 322 kts | 216° |
| 2026-05-05 15:12 | 55.82574 | -4.71430 | 15875 ft | 325 kts | 216° |
| 2026-05-05 15:12 | 55.80642 | -4.73570 | 16534 ft | 328 kts | 216° |
| 2026-05-05 15:12 | 55.78571 | -4.75360 | 17150 ft | 340 kts | 197° |
| 2026-05-05 15:12 | 55.76181 | -4.75696 | 17849 ft | 348 kts | 184° |
| 2026-05-05 15:13 | 55.73750 | -4.75644 | 18483 ft | 351 kts | 183° |
| 2026-05-05 15:13 | 55.71291 | -4.75616 | 19029 ft | 355 kts | 182° |
| 2026-05-05 15:13 | 55.68849 | -4.75091 | 19570 ft | 363 kts | 168° |
| 2026-05-05 15:13 | 55.66446 | -4.73477 | 20229 ft | 367 kts | 155° |
| 2026-05-05 15:14 | 55.64230 | -4.71313 | 20823 ft | 370 kts | 153° |
| 2026-05-05 15:14 | 55.61974 | -4.69082 | 21370 ft | 373 kts | 153° |
| 2026-05-05 15:14 | 55.59691 | -4.66840 | 21933 ft | 376 kts | 153° |
| 2026-05-05 15:14 | 55.57389 | -4.64601 | 22501 ft | 379 kts | 154° |
| 2026-05-05 15:15 | 55.55068 | -4.62361 | 23061 ft | 381 kts | 154° |
| 2026-05-05 15:15 | 55.52733 | -4.60118 | 23606 ft | 384 kts | 154° |
| 2026-05-05 15:15 | 55.50379 | -4.57865 | 24060 ft | 386 kts | 154° |
| 2026-05-05 15:15 | 55.48007 | -4.55599 | 24520 ft | 389 kts | 154° |
| 2026-05-05 15:16 | 55.45619 | -4.53321 | 24962 ft | 391 kts | 154° |
| 2026-05-05 15:16 | 55.43218 | -4.51033 | 25402 ft | 393 kts | 154° |
| 2026-05-05 15:16 | 55.40806 | -4.48738 | 25861 ft | 395 kts | 154° |
| 2026-05-05 15:16 | 55.38444 | -4.46238 | 26278 ft | 399 kts | 146° |
| 2026-05-05 15:17 | 55.36267 | -4.43221 | 26845 ft | 398 kts | 143° |
| 2026-05-05 15:17 | 55.34122 | -4.40118 | 27029 ft | 402 kts | 143° |
| 2026-05-05 15:17 | 55.31969 | -4.37000 | 27035 ft | 400 kts | 143° |
| 2026-05-05 15:17 | 55.29824 | -4.33924 | 27025 ft | 396 kts | 143° |
| 2026-05-05 15:18 | 55.27691 | -4.30899 | 27030 ft | 393 kts | 143° |
| 2026-05-05 15:18 | 55.25554 | -4.27891 | 27038 ft | 395 kts | 143° |
| 2026-05-05 15:18 | 55.23407 | -4.24881 | 27044 ft | 395 kts | 143° |
| 2026-05-05 15:18 | 55.21283 | -4.21907 | 27034 ft | 397 kts | 143° |
| 2026-05-05 15:19 | 55.19122 | -4.18888 | 27014 ft | 397 kts | 143° |
| 2026-05-05 15:19 | 55.17004 | -4.15767 | 27017 ft | 398 kts | 137° |
| 2026-05-05 15:19 | 55.15101 | -4.12231 | 27033 ft | 399 kts | 134° |
| 2026-05-05 15:19 | 55.13234 | -4.08590 | 27029 ft | 404 kts | 134° |
| 2026-05-05 15:20 | 55.11314 | -4.04964 | 27044 ft | 408 kts | 135° |
| 2026-05-05 15:20 | 55.09342 | -4.01334 | 27043 ft | 417 kts | 135° |
| 2026-05-05 15:20 | 55.07313 | -3.97637 | 27040 ft | 427 kts | 135° |
| 2026-05-05 15:20 | 55.05232 | -3.93854 | 27041 ft | 436 kts | 135° |
| 2026-05-05 15:21 | 55.03114 | -3.90002 | 27038 ft | 445 kts | 135° |
| 2026-05-05 15:21 | 55.00955 | -3.86073 | 27035 ft | 452 kts | 135° |
| 2026-05-05 15:21 | 54.98762 | -3.82080 | 27037 ft | 460 kts | 135° |
| 2026-05-05 15:21 | 54.96530 | -3.78027 | 27035 ft | 467 kts | 135° |
| 2026-05-05 15:22 | 54.94202 | -3.74041 | 27008 ft | 471 kts | 142° |
| 2026-05-05 15:22 | 54.91556 | -3.70682 | 27023 ft | 471 kts | 151° |
| 2026-05-05 15:22 | 54.88762 | -3.67741 | 27021 ft | 469 kts | 152° |
| 2026-05-05 15:22 | 54.85996 | -3.64880 | 27025 ft | 468 kts | 152° |
| 2026-05-05 15:23 | 54.83201 | -3.61987 | 27018 ft | 467 kts | 152° |
| 2026-05-05 15:23 | 54.80416 | -3.59085 | 27020 ft | 467 kts | 151° |
| 2026-05-05 15:23 | 54.77631 | -3.56162 | 27027 ft | 467 kts | 151° |
| 2026-05-05 15:23 | 54.74862 | -3.53242 | 27028 ft | 466 kts | 151° |
| 2026-05-05 15:24 | 54.72090 | -3.50312 | 27026 ft | 466 kts | 151° |
| 2026-05-05 15:24 | 54.69320 | -3.47385 | 27018 ft | 466 kts | 152° |
| 2026-05-05 15:24 | 54.66555 | -3.44467 | 27022 ft | 466 kts | 152° |
| 2026-05-05 15:24 | 54.63784 | -3.41548 | 27021 ft | 466 kts | 152° |
| 2026-05-05 15:25 | 54.61018 | -3.38640 | 27031 ft | 466 kts | 152° |
| 2026-05-05 15:25 | 54.58248 | -3.35734 | 27019 ft | 466 kts | 152° |
| 2026-05-05 15:25 | 54.55479 | -3.32833 | 27024 ft | 466 kts | 152° |
| 2026-05-05 15:25 | 54.52742 | -3.29970 | 27020 ft | 466 kts | 152° |
| 2026-05-05 15:26 | 54.49967 | -3.27073 | 27020 ft | 466 kts | 152° |
| 2026-05-05 15:26 | 54.47193 | -3.24182 | 27021 ft | 466 kts | 152° |
| 2026-05-05 15:26 | 54.44419 | -3.21295 | 26995 ft | 466 kts | 152° |
| 2026-05-05 15:26 | 54.41647 | -3.18414 | 27029 ft | 465 kts | 152° |
| 2026-05-05 15:27 | 54.38873 | -3.15536 | 27025 ft | 465 kts | 152° |
| 2026-05-05 15:27 | 54.36095 | -3.12658 | 27018 ft | 465 kts | 152° |
| 2026-05-05 15:27 | 54.33322 | -3.09791 | 27024 ft | 465 kts | 152° |
| 2026-05-05 15:27 | 54.30554 | -3.06933 | 27031 ft | 465 kts | 152° |
| 2026-05-05 15:28 | 54.27785 | -3.04078 | 27007 ft | 465 kts | 152° |
| 2026-05-05 15:28 | 54.25054 | -3.01266 | 27018 ft | 464 kts | 152° |
| 2026-05-05 15:28 | 54.22284 | -2.98417 | 27033 ft | 464 kts | 152° |
| 2026-05-05 15:28 | 54.19514 | -2.95575 | 26998 ft | 464 kts | 152° |
| 2026-05-05 15:29 | 54.16735 | -2.92780 | 27020 ft | 462 kts | 155° |
| 2026-05-05 15:29 | 54.13827 | -2.90458 | 27025 ft | 460 kts | 160° |
| 2026-05-05 15:29 | 54.10869 | -2.88397 | 27024 ft | 459 kts | 161° |
| 2026-05-05 15:29 | 54.07908 | -2.86360 | 27023 ft | 459 kts | 161° |
| 2026-05-05 15:30 | 54.04951 | -2.84276 | 27025 ft | 460 kts | 160° |
| 2026-05-05 15:30 | 54.02003 | -2.82151 | 27033 ft | 460 kts | 160° |
| 2026-05-05 15:30 | 53.99057 | -2.80013 | 27027 ft | 460 kts | 160° |
| 2026-05-05 15:30 | 53.96112 | -2.77889 | 27017 ft | 460 kts | 159° |
| 2026-05-05 15:31 | 53.93195 | -2.75798 | 27019 ft | 460 kts | 160° |
| 2026-05-05 15:31 | 53.90244 | -2.73686 | 27033 ft | 460 kts | 159° |
| 2026-05-05 15:31 | 53.87297 | -2.71561 | 27025 ft | 461 kts | 159° |
| 2026-05-05 15:31 | 53.84346 | -2.69421 | 27021 ft | 462 kts | 159° |
| 2026-05-05 15:32 | 53.81390 | -2.67280 | 27019 ft | 462 kts | 159° |
| 2026-05-05 15:32 | 53.78432 | -2.65145 | 27023 ft | 462 kts | 159° |
| 2026-05-05 15:32 | 53.75474 | -2.63018 | 27023 ft | 462 kts | 159° |
| 2026-05-05 15:32 | 53.72514 | -2.60900 | 27025 ft | 462 kts | 159° |
| 2026-05-05 15:33 | 53.69551 | -2.58786 | 27011 ft | 462 kts | 159° |
| 2026-05-05 15:33 | 53.66585 | -2.56670 | 26912 ft | 463 kts | 159° |
| 2026-05-05 15:33 | 53.63605 | -2.54547 | 26306 ft | 462 kts | 159° |
| 2026-05-05 15:33 | 53.60708 | -2.52235 | 25681 ft | 458 kts | 153° |
| 2026-05-05 15:34 | 53.58010 | -2.49546 | 25100 ft | 454 kts | 150° |
| 2026-05-05 15:34 | 53.55330 | -2.46646 | 24499 ft | 449 kts | 149° |
| 2026-05-05 15:34 | 53.52759 | -2.43838 | 23934 ft | 445 kts | 149° |
| 2026-05-05 15:34 | 53.50156 | -2.41050 | 23286 ft | 442 kts | 150° |
| 2026-05-05 15:35 | 53.47562 | -2.38337 | 22626 ft | 437 kts | 151° |
| 2026-05-05 15:35 | 53.44985 | -2.35686 | 22051 ft | 432 kts | 151° |
| 2026-05-05 15:35 | 53.42430 | -2.33079 | 21467 ft | 427 kts | 151° |
| 2026-05-05 15:35 | 53.39901 | -2.30503 | 20897 ft | 423 kts | 151° |
| 2026-05-05 15:36 | 53.37397 | -2.27954 | 20341 ft | 419 kts | 151° |
| 2026-05-05 15:36 | 53.34918 | -2.25441 | 19840 ft | 414 kts | 152° |
| 2026-05-05 15:36 | 53.32434 | -2.23070 | 19464 ft | 408 kts | 153° |
| 2026-05-05 15:36 | 53.29957 | -2.20803 | 19098 ft | 415 kts | 154° |
| 2026-05-05 15:37 | 53.27396 | -2.18484 | 18703 ft | 420 kts | 154° |
| 2026-05-05 15:37 | 53.24825 | -2.16149 | 18295 ft | 418 kts | 153° |
| 2026-05-05 15:37 | 53.22288 | -2.13831 | 17829 ft | 414 kts | 153° |
| 2026-05-05 15:37 | 53.19773 | -2.11524 | 17415 ft | 410 kts | 153° |
| 2026-05-05 15:38 | 53.17282 | -2.09234 | 17012 ft | 407 kts | 153° |
| 2026-05-05 15:38 | 53.14810 | -2.06963 | 16621 ft | 404 kts | 153° |
| 2026-05-05 15:38 | 53.12356 | -2.04711 | 16234 ft | 401 kts | 153° |
| 2026-05-05 15:38 | 53.09913 | -2.02473 | 15852 ft | 399 kts | 153° |
| 2026-05-05 15:39 | 53.07484 | -2.00252 | 15472 ft | 398 kts | 153° |
| 2026-05-05 15:39 | 53.05052 | -1.98079 | 15087 ft | 395 kts | 156° |
| 2026-05-05 15:39 | 53.02425 | -1.96890 | 14713 ft | 390 kts | 177° |
| 2026-05-05 15:39 | 52.99725 | -1.96617 | 14371 ft | 388 kts | 178° |
| 2026-05-05 15:40 | 52.97034 | -1.96326 | 13998 ft | 387 kts | 178° |
| 2026-05-05 15:40 | 52.94352 | -1.96005 | 13609 ft | 387 kts | 177° |
| 2026-05-05 15:40 | 52.91675 | -1.95667 | 13203 ft | 385 kts | 177° |
| 2026-05-05 15:40 | 52.89907 | -1.95438 | 12948 ft | 383 kts | 177° |
| 2026-05-05 15:41 | 52.87270 | -1.95093 | 12570 ft | 376 kts | 177° |
| 2026-05-05 15:41 | 52.84683 | -1.94753 | 12208 ft | 368 kts | 177° |
| 2026-05-05 15:41 | 52.81343 | -1.94316 | 11754 ft | 359 kts | 177° |
| 2026-05-05 15:41 | 52.79667 | -1.94097 | 11524 ft | 354 kts | 177° |
| 2026-05-05 15:42 | 52.77259 | -1.93784 | 11186 ft | 349 kts | 177° |
| 2026-05-05 15:42 | 52.74858 | -1.93472 | 10858 ft | 343 kts | 177° |
| 2026-05-05 15:42 | 52.72499 | -1.93165 | 10542 ft | 338 kts | 177° |
| 2026-05-05 15:42 | 52.70164 | -1.92863 | 10229 ft | 333 kts | 177° |
| 2026-05-05 15:43 | 52.67872 | -1.92566 | 9946 ft | 327 kts | 176° |
| 2026-05-05 15:43 | 52.65652 | -1.92317 | 9950 ft | 312 kts | 179° |
| 2026-05-05 15:43 | 52.63521 | -1.92186 | 9770 ft | 304 kts | 180° |
| 2026-05-05 15:43 | 52.61428 | -1.92101 | 9488 ft | 295 kts | 181° |
| 2026-05-05 15:44 | 52.59395 | -1.92014 | 9208 ft | 288 kts | 179° |
| 2026-05-05 15:44 | 52.57445 | -1.91939 | 8942 ft | 281 kts | 180° |
| 2026-05-05 15:44 | 52.55508 | -1.91875 | 8662 ft | 274 kts | 180° |
| 2026-05-05 15:44 | 52.53621 | -1.91813 | 8395 ft | 268 kts | 180° |
| 2026-05-05 15:45 | 52.51775 | -1.91769 | 8137 ft | 262 kts | 180° |
| 2026-05-05 15:45 | 52.49969 | -1.91735 | 7874 ft | 258 kts | 176° |
| 2026-05-05 15:45 | 52.48264 | -1.90979 | 7610 ft | 253 kts | 153° |
| 2026-05-05 15:45 | 52.46710 | -1.89669 | 7371 ft | 250 kts | 150° |
| 2026-05-05 15:46 | 52.45180 | -1.88323 | 7124 ft | 248 kts | 150° |
| 2026-05-05 15:46 | 52.43660 | -1.86986 | 6864 ft | 247 kts | 150° |
| 2026-05-05 15:46 | 52.42153 | -1.85667 | 6613 ft | 245 kts | 150° |
| 2026-05-05 15:46 | 52.40661 | -1.84360 | 6370 ft | 242 kts | 150° |
| 2026-05-05 15:47 | 52.39175 | -1.83070 | 6108 ft | 241 kts | 150° |
| 2026-05-05 15:47 | 52.37695 | -1.81793 | 5840 ft | 240 kts | 150° |
| 2026-05-05 15:47 | 52.36214 | -1.80525 | 5585 ft | 240 kts | 150° |
| 2026-05-05 15:47 | 52.34730 | -1.79261 | 5326 ft | 241 kts | 150° |
| 2026-05-05 15:48 | 52.33242 | -1.77997 | 5078 ft | 241 kts | 150° |
| 2026-05-05 15:48 | 52.31773 | -1.76728 | 4837 ft | 244 kts | 150° |
| 2026-05-05 15:48 | 52.30262 | -1.75406 | 4590 ft | 248 kts | 150° |
| 2026-05-05 15:48 | 52.28897 | -1.73687 | 4285 ft | 245 kts | 124° |
| 2026-05-05 15:49 | 52.28274 | -1.71207 | 4045 ft | 238 kts | 92° |
| 2026-05-05 15:49 | 52.28527 | -1.68615 | 3790 ft | 231 kts | 63° |
| 2026-05-05 15:49 | 52.29247 | -1.66317 | 3572 ft | 224 kts | 59° |
| 2026-05-05 15:49 | 52.29973 | -1.64119 | 3322 ft | 216 kts | 60° |
| 2026-05-05 15:50 | 52.30741 | -1.62079 | 3085 ft | 205 kts | 43° |
| 2026-05-05 15:50 | 52.31953 | -1.61227 | 2999 ft | 185 kts | 356° |
| 2026-05-05 15:50 | 52.33135 | -1.61845 | 2997 ft | 179 kts | 338° |
| 2026-05-05 15:50 | 52.34275 | -1.62745 | 2841 ft | 184 kts | 334° |
| 2026-05-05 15:51 | 52.35403 | -1.63745 | 2590 ft | 184 kts | 330° |
| 2026-05-05 15:51 | 52.36479 | -1.64869 | 2342 ft | 183 kts | 328° |
| 2026-05-05 15:51 | 52.37522 | -1.66030 | 2096 ft | 178 kts | 327° |
| 2026-05-05 15:51 | 52.38515 | -1.67144 | 1819 ft | 169 kts | 327° |
| 2026-05-05 15:52 | 52.39423 | -1.68226 | 1603 ft | 153 kts | 326° |
| 2026-05-05 15:52 | 52.40261 | -1.69201 | 1393 ft | 145 kts | 326° |
| 2026-05-05 15:52 | 52.41058 | -1.70102 | 1347 ft | 137 kts | 328° |
| 2026-05-05 15:52 | 52.41875 | -1.70963 | 1225 ft | 144 kts | 329° |
| 2026-05-05 15:53 | 52.42703 | -1.71866 | 958 ft | 141 kts | 328° |
| 2026-05-05 15:53 | 52.43521 | -1.72758 | 703 ft | 141 kts | 326° |
| 2026-05-05 15:53 | 52.44316 | -1.73649 | 450 ft | 138 kts | 327° |
| 2026-05-05 15:53 | 52.45084 | -1.74452 | 333 ft | 120 kts | 324° |
| 2026-05-05 15:54 | 52.45681 | -1.75137 | 322 ft | 84 kts | 327° |
| 2026-05-05 15:54 | 52.46024 | -1.75514 | 310 ft | 44 kts | 326° |
| 2026-05-05 15:54 | 52.46176 | -1.75567 | 309 ft | 23 kts | 53° |
| 2026-05-05 15:54 | 52.46199 | -1.75385 | 302 ft | 18 kts | 134° |
| 2026-05-05 15:55 | 52.46101 | -1.75264 | 303 ft | 17 kts | 144° |
| 2026-05-05 15:55 | 52.46003 | -1.75156 | 305 ft | 17 kts | 146° |
| 2026-05-05 15:55 | 52.45881 | -1.75023 | 305 ft | 27 kts | 146° |
| 2026-05-05 15:55 | 52.45707 | -1.74834 | 312 ft | 30 kts | 147° |
| 2026-05-05 15:56 | 52.45544 | -1.74652 | 322 ft | 28 kts | 145° |
| 2026-05-05 15:56 | 52.45429 | -1.74422 | 322 ft | 26 kts | 118° |
| 2026-05-05 15:56 | 52.45354 | -1.74178 | 322 ft | 18 kts | 117° |
| 2026-05-05 15:56 | 52.45313 | -1.74007 | 322 ft | 15 kts | 83° |
| 2026-05-05 15:57 | 52.45363 | -1.73855 | 321 ft | 15 kts | 56° |
| 2026-05-05 15:57 | 52.45421 | -1.73718 | 321 ft | 14 kts | 55° |
| 2026-05-05 15:57 | 52.45467 | -1.73610 | 322 ft | 10 kts | 55° |
| 2026-05-05 15:57 | 52.45501 | -1.73529 | 322 ft | 4 kts | 55° |
| 2026-05-05 15:58 | 52.45504 | -1.73486 | 322 ft | 4 kts | 114° |
| 2026-05-05 15:58 | 52.45482 | -1.73453 | 322 ft | 4 kts | 141° |
| 2026-05-05 15:58 | 52.45459 | -1.73426 | 322 ft | 3 kts | 146° |
| 2026-05-05 15:58 | 52.45454 | -1.73421 | 322 ft | 0 kts | 145° |